Time;durP1;ratioP1;P1;durP2;ratioP2;P2;SDS_P1;SDS_P2;PMS_P1;PMS_P2;Temp;Humidity;BMP_temperature;BMP_pressure;BME280_temperature;BME280_humidity;BME280_pressure;Samples;Min_cycle;Max_cycle;Signal;HPM_P1;HPM_P2
2021/07/16 00:01:09;;;;;;;1999.90;999.90;;;;;;;25.06;52.76;95356.00;4912550;29;20250;-68
2021/07/16 00:03:36;;;;;;;1999.90;999.90;;;;;;;25.04;52.85;95358.31;4912315;29;20249;-68
2021/07/16 00:06:03;;;;;;;1999.90;999.90;;;;;;;25.00;53.02;95354.94;4912377;29;20198;-68
2021/07/16 00:08:30;;;;;;;1999.90;999.90;;;;;;;25.02;53.37;95345.41;4913384;29;20197;-68
2021/07/16 00:10:59;;;;;;;1999.90;999.90;;;;;;;25.03;52.98;95335.53;4916105;29;20210;-68
2021/07/16 00:13:26;;;;;;;1999.90;999.90;;;;;;;24.97;53.45;95329.88;4916060;29;20209;-67
2021/07/16 00:15:53;;;;;;;1999.90;999.90;;;;;;;24.90;53.73;95326.50;4915906;29;20216;-67
2021/07/16 00:18:20;;;;;;;1999.90;999.90;;;;;;;24.84;53.77;95313.59;4915861;29;20678;-68
2021/07/16 00:20:48;;;;;;;1999.90;999.90;;;;;;;24.92;53.31;95310.91;4916009;29;20206;-68
2021/07/16 00:23:15;;;;;;;1999.90;999.90;;;;;;;24.92;53.35;95316.22;4915783;29;20729;-68
2021/07/16 00:25:42;;;;;;;1999.90;999.90;;;;;;;24.92;53.35;95316.97;4915730;29;20257;-68
2021/07/16 00:28:11;;;;;;;1999.90;999.90;;;;;;;24.91;53.12;95314.72;4915795;29;20592;-67
2021/07/16 00:30:38;;;;;;;1999.90;999.90;;;;;;;24.90;53.18;95313.22;4915989;29;20273;-67
2021/07/16 00:33:07;;;;;;;1999.90;999.90;;;;;;;24.77;53.43;95302.22;4915602;29;20202;-68
2021/07/16 00:35:34;;;;;;;1999.90;999.90;;;;;;;24.63;53.89;95297.75;4915452;29;20206;-67
2021/07/16 00:38:01;;;;;;;1999.90;999.90;;;;;;;24.60;53.58;95290.56;4916586;29;20232;-67
2021/07/16 00:40:28;;;;;;;1999.90;999.90;;;;;;;24.57;53.43;95291.31;4913197;29;20233;-68
2021/07/16 00:42:56;;;;;;;1999.90;999.90;;;;;;;24.50;53.43;95301.25;4916188;29;20702;-67
2021/07/16 00:45:24;;;;;;;1999.90;999.90;;;;;;;24.49;53.72;95311.13;4918531;29;20205;-68
2021/07/16 00:47:52;;;;;;;1999.90;999.90;;;;;;;24.47;53.58;95312.63;4934299;29;20207;-68
2021/07/16 00:50:22;;;;;;;1999.90;999.90;;;;;;;24.41;53.67;95328.22;4934592;29;20291;-68
2021/07/16 00:52:50;;;;;;;1999.90;999.90;;;;;;;24.44;53.67;95332.78;4934522;29;20208;-67
2021/07/16 00:55:18;;;;;;;1999.90;999.90;;;;;;;24.35;54.24;95335.84;4934945;29;20201;-67
2021/07/16 00:57:45;;;;;;;1999.90;999.90;;;;;;;24.31;54.34;95334.31;4929594;29;20233;-67
2021/07/16 01:00:14;;;;;;;1999.90;999.90;;;;;;;24.25;55.37;95335.88;4915332;29;20198;-67
2021/07/16 01:02:43;;;;;;;1999.90;999.90;;;;;;;24.16;56.32;95324.88;4914981;29;20244;-67
2021/07/16 01:05:14;;;;;;;1999.90;999.90;;;;;;;24.11;56.55;95331.31;4914918;29;20205;-67
2021/07/16 01:07:41;;;;;;;1999.90;999.90;;;;;;;24.12;56.63;95342.69;4915043;29;20182;-67
2021/07/16 01:10:10;;;;;;;1999.90;999.90;;;;;;;24.02;56.09;95333.63;4915156;29;20209;-68
2021/07/16 01:12:39;;;;;;;1999.90;999.90;;;;;;;24.03;56.69;95335.16;4915121;29;20253;-68
2021/07/16 01:15:08;;;;;;;1999.90;999.90;;;;;;;24.02;57.48;95323.00;4914883;29;20683;-67
2021/07/16 01:17:36;;;;;;;1999.90;999.90;;;;;;;23.93;55.71;95312.78;4915112;29;20246;-68
2021/07/16 01:20:07;;;;;;;1999.90;999.90;;;;;;;23.92;55.91;95307.84;4914205;29;20679;-67
2021/07/16 01:22:37;;;;;;;1999.90;999.90;;;;;;;23.89;55.83;95309.41;4914704;29;20651;-68
2021/07/16 01:25:08;;;;;;;1999.90;999.90;;;;;;;23.84;56.23;95307.13;4914655;29;20202;-67
2021/07/16 01:27:36;;;;;;;1999.90;999.90;;;;;;;23.82;55.98;95293.47;4914494;29;20190;-66
2021/07/16 01:30:07;;;;;;;1999.90;999.90;;;;;;;23.88;55.92;95307.13;4915053;29;20640;-68
2021/07/16 01:32:34;;;;;;;1999.90;999.90;;;;;;;23.89;56.63;95290.81;4914866;29;20690;-68
2021/07/16 01:35:02;;;;;;;1999.90;999.90;;;;;;;23.82;56.50;95293.47;4925245;29;20197;-68
2021/07/16 01:37:29;;;;;;;1999.90;999.90;;;;;;;23.87;55.99;95284.34;4933741;29;20239;-67
2021/07/16 01:39:56;;;;;;;1999.90;999.90;;;;;;;23.83;55.57;95289.69;4933788;29;20197;-68
2021/07/16 01:42:25;;;;;;;1999.90;999.90;;;;;;;23.87;56.04;95287.00;4933369;29;20208;-68
2021/07/16 01:44:52;;;;;;;1999.90;999.90;;;;;;;23.86;56.21;95288.91;4933401;29;20207;-67
2021/07/16 01:47:19;;;;;;;1999.90;999.90;;;;;;;23.87;56.45;95290.44;4933297;29;20201;-67
2021/07/16 01:49:46;;;;;;;1999.90;999.90;;;;;;;23.78;56.41;95294.63;4933277;29;20201;-67
2021/07/16 01:52:13;;;;;;;1999.90;999.90;;;;;;;23.80;56.88;95293.13;4933642;29;20208;-68
2021/07/16 01:54:40;;;;;;;1999.90;999.90;;;;;;;23.78;56.77;95292.72;4933493;29;20201;-67
2021/07/16 01:57:07;;;;;;;1999.90;999.90;;;;;;;23.79;57.16;95296.13;4933092;29;20283;-67
2021/07/16 01:59:36;;;;;;;1999.90;999.90;;;;;;;23.70;57.37;95293.88;4918335;29;20630;-68
2021/07/16 02:02:03;;;;;;;1999.90;999.90;;;;;;;23.60;58.29;95286.69;4910720;29;20237;-74
2021/07/16 02:04:31;;;;;;;1999.90;999.90;;;;;;;23.59;58.25;95293.16;4911217;29;20304;-66
2021/07/16 02:07:00;;;;;;;1999.90;999.90;;;;;;;23.58;58.52;95289.72;4913501;29;20202;-67
2021/07/16 02:09:27;;;;;;;1999.90;999.90;;;;;;;23.48;59.39;95284.44;4913470;29;20265;-65
2021/07/16 02:11:57;;;;;;;1999.90;999.90;;;;;;;23.45;59.41;95279.91;4910470;29;20667;-70
2021/07/16 02:14:25;;;;;;;1999.90;999.90;;;;;;;23.46;58.58;95278.75;4913727;29;20202;-71
2021/07/16 02:16:54;;;;;;;1999.90;999.90;;;;;;;23.46;58.59;95270.81;4913983;29;20233;-69
2021/07/16 02:19:21;;;;;;;1999.90;999.90;;;;;;;23.42;58.68;95272.66;4913339;29;20626;-69
2021/07/16 02:21:48;;;;;;;1999.90;999.90;;;;;;;23.38;58.46;95264.72;4913566;29;20682;-68
2021/07/16 02:24:15;;;;;;;1999.90;999.90;;;;;;;23.26;59.70;95261.69;4913737;29;20583;-68
2021/07/16 02:26:43;;;;;;;1999.90;999.90;;;;;;;22.94;61.76;95264.34;4913569;29;20713;-70
2021/07/16 02:29:10;;;;;;;1999.90;999.90;;;;;;;22.37;66.48;95266.84;4913664;29;20706;-71
2021/07/16 02:31:37;;;;;;;1999.90;999.90;;;;;;;22.12;67.50;95272.03;4913045;29;20671;-69
2021/07/16 02:34:05;;;;;;;1999.90;999.90;;;;;;;22.10;67.87;95270.91;4916835;29;20659;-68
2021/07/16 02:36:34;;;;;;;1999.90;999.90;;;;;;;22.00;68.09;95272.38;4932701;29;20750;-68
2021/07/16 02:39:01;;;;;;;1999.90;999.90;;;;;;;21.94;69.04;95278.41;4932242;29;20263;-68
2021/07/16 02:41:28;;;;;;;1999.90;999.90;;;;;;;21.88;69.37;95289.31;4932672;29;20217;-68
2021/07/16 02:43:55;;;;;;;1999.90;999.90;;;;;;;21.99;69.49;95288.63;4932285;29;20197;-68
2021/07/16 02:46:22;;;;;;;1999.90;999.90;;;;;;;22.02;69.65;95299.22;4932362;29;20205;-69
2021/07/16 02:48:49;;;;;;;1999.90;999.90;;;;;;;22.05;69.43;95303.03;4915456;29;20566;-64
2021/07/16 02:51:18;;;;;;;1999.90;999.90;;;;;;;22.00;69.46;95301.50;4894340;29;20202;-68
2021/07/16 02:53:45;;;;;;;1999.90;999.90;;;;;;;22.06;69.95;95300.03;4894533;29;20206;-69
2021/07/16 02:56:12;;;;;;;1999.90;999.90;;;;;;;21.98;70.53;95297.69;4894004;29;20206;-66
2021/07/16 02:58:39;;;;;;;1999.90;999.90;;;;;;;21.89;71.15;95295.34;4894345;29;20243;-67
2021/07/16 03:01:06;;;;;;;1999.90;999.90;;;;;;;21.86;71.00;95291.56;4894351;29;20214;-67
2021/07/16 03:03:33;;;;;;;1999.90;999.90;;;;;;;21.82;71.37;95290.78;4909821;29;20241;-79
2021/07/16 03:06:00;;;;;;;1999.90;999.90;;;;;;;21.79;71.31;95290.75;4912944;29;20202;-71
2021/07/16 03:08:29;;;;;;;1999.90;999.90;;;;;;;21.78;71.63;95294.53;4912934;29;20265;-71
2021/07/16 03:10:56;;;;;;;1999.90;999.90;;;;;;;21.73;71.99;95302.81;4912829;29;20198;-71
2021/07/16 03:13:23;;;;;;;1999.90;999.90;;;;;;;21.77;71.95;95306.22;4912721;29;20205;-71
2021/07/16 03:15:50;;;;;;;1999.90;999.90;;;;;;;21.74;71.97;95293.75;4913159;29;20190;-70
2021/07/16 03:18:20;;;;;;;1999.90;999.90;;;;;;;21.75;72.80;95296.03;4912679;29;20218;-70
2021/07/16 03:20:48;;;;;;;1999.90;999.90;;;;;;;21.58;73.93;95299.31;4894957;29;20262;-71
2021/07/16 03:23:16;;;;;;;1999.90;999.90;;;;;;;21.56;74.49;95288.38;4894071;29;20206;-73
2021/07/16 03:25:45;;;;;;;1999.90;999.90;;;;;;;21.62;73.62;95286.13;4894173;29;20202;-72
2021/07/16 03:28:13;;;;;;;1999.90;999.90;;;;;;;21.68;72.42;95284.66;4893731;29;20213;-72
2021/07/16 03:30:41;;;;;;;1999.90;999.90;;;;;;;21.79;70.46;95290.75;4893623;29;20198;-71
2021/07/16 03:33:09;;;;;;;1999.90;999.90;;;;;;;21.85;69.48;95284.75;4892467;29;20899;-72
2021/07/16 03:35:36;;;;;;;1999.90;999.90;;;;;;;21.83;69.41;95287.00;4919096;29;20202;-71
2021/07/16 03:38:03;;;;;;;1999.90;999.90;;;;;;;21.85;69.11;95289.28;4912728;29;20228;-71
2021/07/16 03:40:31;;;;;;;1999.90;999.90;;;;;;;21.72;69.59;95301.28;4912813;29;20210;-72
2021/07/16 03:43:01;;;;;;;1999.90;999.90;;;;;;;21.78;71.56;95307.75;4910844;29;20209;-72
2021/07/16 03:45:29;;;;;;;1999.90;999.90;;;;;;;21.78;72.33;95315.69;4917163;29;20201;-73
2021/07/16 03:47:56;;;;;;;1999.90;999.90;;;;;;;21.69;73.24;95317.91;4914326;29;20245;-76
2021/07/16 03:50:24;;;;;;;1999.90;999.90;;;;;;;21.67;73.52;95309.59;4916180;29;20205;-75
2021/07/16 03:52:52;;;;;;;1999.90;999.90;;;;;;;21.45;74.36;95309.44;4914892;29;20296;-69
2021/07/16 03:55:20;;;;;;;1999.90;999.90;;;;;;;21.44;74.61;95315.09;4917159;29;20213;-76
2021/07/16 03:57:49;;;;;;;1999.90;999.90;;;;;;;21.53;73.35;95312.13;4916631;29;20308;-75
2021/07/16 04:00:26;;;;;;;1999.90;999.90;;;;;;;21.55;73.49;95317.81;4916280;29;20208;-74
2021/07/16 04:02:53;;;;;;;1999.90;999.90;;;;;;;21.57;73.42;95315.56;4912101;29;20237;-76
2021/07/16 04:05:20;;;;;;;1999.90;999.90;;;;;;;21.71;72.72;95316.44;4913506;29;20253;-75
2021/07/16 04:07:49;;;;;;;1999.90;999.90;;;;;;;21.88;71.83;95310.47;4913143;29;20309;-74
2021/07/16 04:10:18;;;;;;;1999.90;999.90;;;;;;;21.95;71.64;95309.78;4913317;29;20282;-75
2021/07/16 04:12:51;;;;;;;1999.90;999.90;;;;;;;21.90;73.23;95307.47;4913345;29;20860;-76
2021/07/16 04:15:20;;;;;;;1999.90;999.90;;;;;;;21.86;73.95;95309.34;4913667;29;20253;-76
2021/07/16 04:17:48;;;;;;;1999.90;999.90;;;;;;;22.01;73.84;95303.03;4915169;29;20222;-77
2021/07/16 04:20:15;;;;;;;1999.90;999.90;;;;;;;22.07;73.89;95296.22;4915772;29;20702;-77
2021/07/16 04:22:44;;;;;;;1999.90;999.90;;;;;;;22.15;73.21;95292.50;4916067;29;20198;-75
2021/07/16 04:25:14;;;;;;;1999.90;999.90;;;;;;;22.18;73.09;95297.03;4916212;29;20679;-76
2021/07/16 04:27:42;;;;;;;1999.90;999.90;;;;;;;22.22;73.31;95311.03;4915935;29;20202;-78
2021/07/16 04:30:10;;;;;;;1999.90;999.90;;;;;;;22.36;74.00;95312.25;4916161;29;20289;-77
2021/07/16 04:32:40;;;;;;;1999.90;999.90;;;;;;;22.41;72.87;95304.72;4915665;29;20202;-77
2021/07/16 04:35:09;;;;;;;1999.90;999.90;;;;;;;22.63;70.35;95300.22;4927501;29;20320;-75
2021/07/16 04:37:36;;;;;;;1999.90;999.90;;;;;;;22.84;67.87;95297.66;4935084;29;20236;-77
2021/07/16 04:40:04;;;;;;;1999.90;999.90;;;;;;;22.98;66.60;95310.91;4935218;29;20208;-76
2021/07/16 04:42:31;;;;;;;1999.90;999.90;;;;;;;23.43;65.09;95306.00;4934764;29;20208;-76
2021/07/16 04:44:59;;;;;;;1999.90;999.90;;;;;;;24.03;63.55;95297.97;4934526;29;20201;-77
2021/07/16 04:47:26;;;;;;;1999.90;999.90;;;;;;;24.59;60.06;95302.34;4934837;29;20216;-78
2021/07/16 04:49:54;;;;;;;1999.90;999.90;;;;;;;24.76;59.53;95298.81;4934977;29;20570;-77
2021/07/16 04:52:22;;;;;;;1999.90;999.90;;;;;;;24.91;57.55;95306.75;4927575;29;20201;-76
2021/07/16 04:54:49;;;;;;;1999.90;999.90;;;;;;;25.22;55.42;95311.06;4909856;29;20226;-78
2021/07/16 04:57:16;;;;;;;1999.90;999.90;;;;;;;25.31;54.67;95308.72;4896438;29;20683;-78
2021/07/16 04:59:43;;;;;;;1999.90;999.90;;;;;;;25.50;55.38;95302.88;4896907;29;20626;-75
2021/07/16 05:02:10;;;;;;;1999.90;999.90;;;;;;;25.62;54.47;95302.41;4901238;29;20245;-78
2021/07/16 05:04:37;;;;;;;1999.90;999.90;;;;;;;25.66;54.06;95305.03;4915519;29;20197;-77
2021/07/16 05:07:06;;;;;;;1999.90;999.90;;;;;;;25.75;53.36;95305.34;4915344;29;20679;-76
2021/07/16 05:09:33;;;;;;;1999.90;999.90;;;;;;;25.80;55.08;95301.50;4915508;29;20198;-77
2021/07/16 05:12:00;;;;;;;1999.90;999.90;;;;;;;25.80;54.28;95304.91;4915738;29;20212;-76
2021/07/16 05:14:27;;;;;;;1999.90;999.90;;;;;;;25.86;53.17;95299.88;4915255;29;20213;-76
2021/07/16 05:16:54;;;;;;;1999.90;999.90;;;;;;;25.80;53.05;95296.94;4915382;29;20202;-79
2021/07/16 05:19:21;;;;;;;1999.90;999.90;;;;;;;25.86;53.43;95295.31;4915488;29;20240;-79
2021/07/16 05:21:49;;;;;;;1999.90;999.90;;;;;;;25.70;53.89;95298.53;4914942;29;20261;-78
2021/07/16 05:24:17;;;;;;;1999.90;999.90;;;;;;;25.67;53.72;95295.91;4915223;29;20693;-79
2021/07/16 05:26:44;;;;;;;1999.90;999.90;;;;;;;25.89;52.10;95291.13;4915299;29;20212;-78
2021/07/16 05:29:12;;;;;;;1999.90;999.90;;;;;;;26.16;52.04;95291.97;4915373;29;20205;-79
2021/07/16 05:31:39;;;;;;;1999.90;999.90;;;;;;;26.32;52.97;95289.53;4906211;29;20215;-76
2021/07/16 05:34:06;;;;;;;1999.90;999.90;;;;;;;26.36;52.54;95284.13;4904824;29;20263;-77
2021/07/16 05:36:33;;;;;;;1999.90;999.90;;;;;;;26.62;52.21;95283.44;4936600;29;20593;-77
2021/07/16 05:39:04;;;;;;;1999.90;999.90;;;;;;;26.82;50.32;95288.88;4935877;29;20318;-76
2021/07/16 05:41:33;;;;;;;1999.90;999.90;;;;;;;26.99;50.03;95279.91;4935550;29;20192;-78
2021/07/16 05:44:01;;;;;;;1999.90;999.90;;;;;;;26.97;49.74;95280.28;4935235;29;20205;-78
2021/07/16 05:46:30;;;;;;;1999.90;999.90;;;;;;;26.84;51.64;95283.91;4934508;29;20667;-80
2021/07/16 05:48:58;;;;;;;1999.90;999.90;;;;;;;26.97;49.77;95282.19;4935114;29;20288;-79
2021/07/16 05:51:25;;;;;;;1999.90;999.90;;;;;;;26.85;52.17;95282.75;4934634;29;20201;-77
2021/07/16 05:53:52;;;;;;;1999.90;999.90;;;;;;;27.04;49.94;95279.44;4936058;29;20645;-79
2021/07/16 05:56:19;;;;;;;1999.90;999.90;;;;;;;27.14;51.50;95283.09;4936210;29;20197;-78
2021/07/16 05:58:48;;;;;;;1999.90;999.90;;;;;;;27.49;49.98;95287.91;4936309;29;20225;-78
2021/07/16 06:01:15;;;;;;;1999.90;999.90;;;;;;;27.56;48.25;95279.00;4936738;29;20228;-77
2021/07/16 06:03:43;;;;;;;1999.90;999.90;;;;;;;27.68;49.02;95289.09;4883517;29;20299;-78
2021/07/16 06:06:10;;;;;;;1999.90;999.90;;;;;;;27.79;47.27;95287.75;4878553;29;20267;-78
2021/07/16 06:08:37;;;;;;;1999.90;999.90;;;;;;;27.98;47.86;95285.50;4878955;29;20199;-77
2021/07/16 06:11:04;;;;;;;1999.90;999.90;;;;;;;27.90;47.99;95279.53;4879333;29;20222;-78
2021/07/16 06:13:31;;;;;;;1999.90;999.90;;;;;;;28.00;47.68;95275.91;4877396;29;20290;-78
2021/07/16 06:16:00;;;;;;;1999.90;999.90;;;;;;;28.23;47.70;95261.75;4876996;29;20210;-78
2021/07/16 06:18:27;;;;;;;1999.90;999.90;;;;;;;28.25;47.96;95262.06;4876681;29;20241;-77
2021/07/16 06:20:54;;;;;;;1999.90;999.90;;;;;;;28.34;48.72;95264.22;4877181;29;20211;-77
2021/07/16 06:23:23;;;;;;;1999.90;999.90;;;;;;;28.34;46.99;95256.19;4877782;29;20203;-77
2021/07/16 06:25:50;;;;;;;1999.90;999.90;;;;;;;28.40;45.98;95263.28;4877055;29;20231;-78
2021/07/16 06:28:17;;;;;;;1999.90;999.90;;;;;;;28.60;44.07;95268.59;4876685;29;20203;-78
2021/07/16 06:30:44;;;;;;;1999.90;999.90;;;;;;;28.53;45.02;95252.72;4876540;29;20707;-77
2021/07/16 06:33:13;;;;;;;1999.90;999.90;;;;;;;28.47;46.44;95257.06;4876323;29;20206;-74
2021/07/16 06:35:40;;;;;;;1999.90;999.90;;;;;;;28.55;45.69;95253.03;4891633;29;20213;-78
2021/07/16 06:38:07;;;;;;;1999.90;999.90;;;;;;;28.80;44.69;95258.63;4894965;29;20226;-77
2021/07/16 06:40:34;;;;;;;1999.90;999.90;;;;;;;28.91;44.91;95251.13;4894878;29;20198;-75
2021/07/16 06:43:08;;;;;;;1999.90;999.90;;;;;;;28.86;44.57;95251.63;4895063;29;20213;-77
2021/07/16 06:45:35;;;;;;;1999.90;999.90;;;;;;;29.00;43.22;95251.28;4894969;29;20719;-78
2021/07/16 06:48:02;;;;;;;1999.90;999.90;;;;;;;29.00;42.37;95242.50;4895442;29;20211;-78
2021/07/16 06:50:31;;;;;;;1999.90;999.90;;;;;;;29.24;43.65;95243.84;4895379;29;20244;-78
2021/07/16 06:52:58;;;;;;;1999.90;999.90;;;;;;;29.55;42.12;95246.16;4894839;29;20202;-75
2021/07/16 06:55:25;;;;;;;1999.90;999.90;;;;;;;29.72;41.06;95245.72;4894611;29;20617;-76
2021/07/16 06:57:53;;;;;;;1999.90;999.90;;;;;;;29.81;39.97;95247.78;4894461;29;20198;-76
2021/07/16 07:00:20;;;;;;;1999.90;999.90;;;;;;;29.88;39.71;95243.00;4894584;29;20210;-75
2021/07/16 07:02:47;;;;;;;1999.90;999.90;;;;;;;30.07;38.24;95245.97;4908249;29;20245;-76
2021/07/16 07:05:14;;;;;;;1999.90;999.90;;;;;;;29.94;39.25;95245.91;4913208;29;20928;-76
2021/07/16 07:07:43;;;;;;;1999.90;999.90;;;;;;;29.96;38.20;95245.50;4913522;29;20582;-76
2021/07/16 07:10:11;;;;;;;1999.90;999.90;;;;;;;29.99;38.03;95241.97;4913340;29;20592;-76
2021/07/16 07:12:41;;;;;;;1999.90;999.90;;;;;;;29.97;37.45;95245.09;4913140;29;20667;-76
2021/07/16 07:15:09;;;;;;;1999.90;999.90;;;;;;;30.01;37.89;95236.94;4913266;29;20253;-77
2021/07/16 07:17:36;;;;;;;1999.90;999.90;;;;;;;29.86;39.16;95229.25;4912861;29;20210;-77
2021/07/16 07:20:04;;;;;;;1999.90;999.90;;;;;;;30.31;38.24;95226.50;4913046;29;20230;-77
2021/07/16 07:22:31;;;;;;;1999.90;999.90;;;;;;;30.28;37.61;95224.66;4913162;29;20202;-77
2021/07/16 07:24:59;;;;;;;1999.90;999.90;;;;;;;30.40;38.32;95223.16;4913668;29;20340;-77
2021/07/16 07:27:26;;;;;;;1999.90;999.90;;;;;;;30.41;36.99;95227.34;4913479;29;20233;-77
2021/07/16 07:29:54;;;;;;;1999.90;999.90;;;;;;;30.43;37.34;95225.00;4913238;29;20198;-78
2021/07/16 07:32:21;;;;;;;1999.90;999.90;;;;;;;30.43;37.51;95219.66;4913225;29;20206;-76
2021/07/16 07:34:48;;;;;;;1999.90;999.90;;;;;;;30.46;36.81;95226.84;4921870;29;20208;-78
2021/07/16 07:37:15;;;;;;;1999.90;999.90;;;;;;;30.29;38.16;95222.72;4932232;29;20264;-78
2021/07/16 07:39:42;;;;;;;1999.90;999.90;;;;;;;30.44;37.55;95218.44;4932057;29;20239;-77
2021/07/16 07:42:15;;;;;;;1999.90;999.90;;;;;;;30.77;37.33;95213.66;4932092;29;20591;-78
2021/07/16 07:44:42;;;;;;;1999.90;999.90;;;;;;;30.35;37.94;95221.00;4932005;29;20193;-78
2021/07/16 07:47:10;;;;;;;1999.90;999.90;;;;;;;30.52;36.70;95219.03;4932415;29;20227;-78
2021/07/16 07:49:37;;;;;;;1999.90;999.90;;;;;;;30.63;37.66;95225.59;4932646;29;20193;-79
2021/07/16 07:52:06;;;;;;;1999.90;999.90;;;;;;;30.85;38.34;95214.16;4932121;29;20237;-77
2021/07/16 07:54:34;;;;;;;1999.90;999.90;;;;;;;31.07;37.99;95217.72;4932020;29;20236;-78
2021/07/16 07:57:01;;;;;;;1999.90;999.90;;;;;;;31.21;36.94;95211.88;4932152;29;20260;-77
2021/07/16 07:59:30;;;;;;;1999.90;999.90;;;;;;;31.18;37.68;95212.78;4932638;29;20232;-76
2021/07/16 08:01:57;;;;;;;1999.90;999.90;;;;;;;31.26;37.46;95211.34;4918384;29;20237;-78
2021/07/16 08:04:24;;;;;;;1999.90;999.90;;;;;;;31.27;38.10;95202.09;4913038;29;20202;-71
2021/07/16 08:06:51;;;;;;;1999.90;999.90;;;;;;;31.47;36.88;95202.56;4913789;29;20213;-78
2021/07/16 08:09:18;;;;;;;1999.90;999.90;;;;;;;31.53;38.30;95203.50;4914576;29;20198;-78
2021/07/16 08:11:46;;;;;;;1999.90;999.90;;;;;;;31.41;37.31;95198.94;4914382;29;20225;-78
2021/07/16 08:14:13;;;;;;;1999.90;999.90;;;;;;;31.24;38.05;95197.59;4913624;29;20611;-77
2021/07/16 08:16:46;;;;;;;1999.90;999.90;;;;;;;31.45;37.69;95196.88;4914376;29;20202;-77
2021/07/16 08:19:17;;;;;;;1999.90;999.90;;;;;;;31.36;38.26;95196.81;4914244;29;20214;-79
2021/07/16 08:21:45;;;;;;;1999.90;999.90;;;;;;;31.57;37.93;95198.81;4914626;29;20216;-77
2021/07/16 08:24:13;;;;;;;1999.90;999.90;;;;;;;31.69;39.28;95199.91;4914294;29;20296;-78
2021/07/16 08:26:40;;;;;;;1999.90;999.90;;;;;;;31.82;38.63;95202.56;4914283;29;20201;-78
2021/07/16 08:29:07;;;;;;;1999.90;999.90;;;;;;;31.67;37.42;95204.25;4913648;29;20319;-77
2021/07/16 08:31:35;;;;;;;1999.90;999.90;;;;;;;31.69;38.32;95201.84;4916691;29;20206;-76
2021/07/16 08:34:04;;;;;;;1999.90;999.90;;;;;;;31.81;38.69;95195.66;4919534;29;20201;-77
2021/07/16 08:36:31;;;;;;;1999.90;999.90;;;;;;;31.93;38.08;95197.56;4936649;29;20201;-77
2021/07/16 08:38:59;;;;;;;1999.90;999.90;;;;;;;32.01;38.66;95193.41;4936115;29;20868;-77
2021/07/16 08:41:26;;;;;;;1999.90;999.90;;;;;;;32.01;38.72;95194.16;4935913;29;20679;-77
2021/07/16 08:43:54;;;;;;;1999.90;999.90;;;;;;;32.05;38.77;95184.03;4936369;29;20202;-77
2021/07/16 08:46:22;;;;;;;1999.90;999.90;;;;;;;32.17;38.34;95185.16;4936681;29;20220;-77
2021/07/16 08:48:49;;;;;;;1999.90;999.90;;;;;;;32.01;38.14;95178.03;4937513;29;20212;-78
2021/07/16 08:51:20;;;;;;;1999.90;999.90;;;;;;;32.04;38.72;95179.81;4936764;29;20288;-78
2021/07/16 08:53:50;;;;;;;1999.90;999.90;;;;;;;32.11;38.51;95178.84;4935381;29;20189;-77
2021/07/16 08:56:18;;;;;;;1999.90;999.90;;;;;;;32.16;39.64;95178.28;4935463;29;20288;-77
2021/07/16 08:58:45;;;;;;;1999.90;999.90;;;;;;;32.44;37.34;95179.91;4935208;29;20208;-77
2021/07/16 09:01:12;;;;;;;1999.90;999.90;;;;;;;32.39;37.29;95175.09;4935881;29;20221;-78
2021/07/16 09:03:56;;;;;;;1999.90;999.90;;;;;;;32.52;37.54;95174.25;4919152;29;20241;-77
2021/07/16 09:06:43;;;;;;;1999.90;999.90;;;;;;;32.51;37.62;95176.19;4916158;29;20198;-78
2021/07/16 09:09:10;;;;;;;1999.90;999.90;;;;;;;32.68;38.47;95168.66;4916696;29;20187;-78
2021/07/16 09:11:40;;;;;;;1999.90;999.90;;;;;;;32.70;37.56;95163.56;4916787;29;20200;-77
2021/07/16 09:14:07;;;;;;;1999.90;999.90;;;;;;;32.74;38.32;95161.47;4915812;29;20202;-78
2021/07/16 09:16:34;;;;;;;1999.90;999.90;;;;;;;32.97;37.11;95163.63;4916124;29;20212;-77
2021/07/16 09:19:02;;;;;;;1999.90;999.90;;;;;;;32.87;37.41;95160.16;4915627;29;20230;-76
2021/07/16 09:21:30;;;;;;;1999.90;999.90;;;;;;;33.06;35.93;95158.25;4915862;29;20205;-77
2021/07/16 09:24:05;;;;;;;1999.90;999.90;;;;;;;33.08;37.09;95158.53;4916390;29;20202;-78
2021/07/16 09:26:37;;;;;;;1999.90;999.90;;;;;;;33.20;37.51;95154.25;4916556;29;20196;-77
2021/07/16 09:29:05;;;;;;;1999.90;999.90;;;;;;;33.15;35.42;95158.25;4915695;29;20202;-78
2021/07/16 09:31:39;;;;;;;1999.90;999.90;;;;;;;33.09;37.74;95149.25;4916255;29;20198;-78
2021/07/16 09:34:11;;;;;;;1999.90;999.90;;;;;;;33.28;36.79;95156.19;4919320;29;20201;-78
2021/07/16 09:36:45;;;;;;;1999.90;999.90;;;;;;;33.55;36.36;95157.38;4934666;29;20733;-78
2021/07/16 09:39:16;;;;;;;1999.90;999.90;;;;;;;33.38;36.59;95150.78;4934413;29;20652;-78
2021/07/16 09:41:50;;;;;;;1999.90;999.90;;;;;;;33.18;36.92;95149.28;4933787;29;20193;-78
2021/07/16 09:44:29;;;;;;;1999.90;999.90;;;;;;;33.21;37.47;95143.03;4934739;29;20200;-78
2021/07/16 09:47:11;;;;;;;1999.90;999.90;;;;;;;33.74;37.08;95142.69;4935299;29;20186;-78
2021/07/16 09:49:39;;;;;;;1999.90;999.90;;;;;;;33.57;35.81;95142.25;4934823;29;20208;-78
2021/07/16 09:52:16;;;;;;;1999.90;999.90;;;;;;;33.56;35.80;95142.72;4934674;29;20213;-78
2021/07/16 09:55:08;;;;;;;1999.90;999.90;;;;;;;33.49;37.21;95137.59;4934211;29;20312;-78
2021/07/16 09:57:43;;;;;;;1999.90;999.90;;;;;;;33.66;36.63;95133.41;4934054;29;20233;-78
2021/07/16 10:00:14;;;;;;;1999.90;999.90;;;;;;;33.65;36.26;95124.56;4934435;29;20204;-76
2021/07/16 10:02:42;;;;;;;1999.90;999.90;;;;;;;33.72;36.22;95126.97;4925583;29;20679;-78
2021/07/16 10:05:11;;;;;;;1999.90;999.90;;;;;;;33.83;35.94;95123.78;4916447;29;20212;-78
2021/07/16 10:07:39;;;;;;;1999.90;999.90;;;;;;;33.98;36.48;95116.56;4915410;29;20205;-78
2021/07/16 10:10:07;;;;;;;1999.90;999.90;;;;;;;33.96;36.08;95123.63;4915922;29;20217;-78
2021/07/16 10:12:36;;;;;;;1999.90;999.90;;;;;;;33.79;35.94;95107.03;4915424;29;20216;-78
2021/07/16 10:15:04;;;;;;;1999.90;999.90;;;;;;;33.85;35.64;95112.56;4915715;29;20201;-77
2021/07/16 10:17:31;;;;;;;1999.90;999.90;;;;;;;34.10;35.33;95115.63;4915996;29;20209;-78
2021/07/16 10:19:58;;;;;;;1999.90;999.90;;;;;;;34.28;36.24;95105.97;4915733;29;20588;-78
2021/07/16 10:22:25;;;;;;;1999.90;999.90;;;;;;;34.25;35.51;95104.19;4915493;29;20216;-77
2021/07/16 10:24:54;;;;;;;1999.90;999.90;;;;;;;34.28;35.09;95103.28;4915656;29;20206;-78
2021/07/16 10:27:22;;;;;;;1999.90;999.90;;;;;;;34.21;34.87;95095.53;4914868;29;20328;-78
2021/07/16 10:29:49;;;;;;;1999.90;999.90;;;;;;;34.30;35.06;95098.19;4914117;29;20670;-78
2021/07/16 10:32:41;;;;;;;1999.90;999.90;;;;;;;34.39;36.11;95095.44;4914134;29;20209;-76
2021/07/16 10:35:20;;;;;;;1999.90;999.90;;;;;;;34.76;35.54;95088.66;4924353;29;20193;-76
2021/07/16 10:37:49;;;;;;;1999.90;999.90;;;;;;;34.64;34.81;95097.69;4913881;29;20220;-77
2021/07/16 10:40:42;;;;;;;1999.90;999.90;;;;;;;34.48;35.40;95079.19;4913678;29;20244;-78
2021/07/16 10:43:30;;;;;;;1999.90;999.90;;;;;;;34.65;35.34;95083.00;4914296;29;20650;-77
2021/07/16 10:45:58;;;;;;;1999.90;999.90;;;;;;;34.71;35.10;95081.19;4916859;29;20288;-78
2021/07/16 10:48:31;;;;;;;1999.90;999.90;;;;;;;34.80;34.46;95086.53;4916044;29;20202;-79
2021/07/16 10:50:58;;;;;;;1999.90;999.90;;;;;;;34.85;34.56;95074.31;4916028;29;20186;-78
2021/07/16 10:53:39;;;;;;;1999.90;999.90;;;;;;;34.92;35.06;95074.72;4913758;29;20671;-78
2021/07/16 10:56:10;;;;;;;1999.90;999.90;;;;;;;34.92;34.99;95074.00;4915179;29;20275;-79
2021/07/16 10:58:45;;;;;;;1999.90;999.90;;;;;;;34.67;33.81;95071.75;4914247;29;20194;-75
2021/07/16 11:01:14;;;;;;;1999.90;999.90;;;;;;;34.65;33.99;95064.09;4913555;29;20229;-78